createdAt,value
2019-05-02T00:02:05.709Z,38.63
2019-05-02T00:04:35.294Z,42.00
2019-05-02T00:07:06.509Z,40.97
2019-05-02T00:09:36.168Z,42.40
2019-05-02T00:12:08.016Z,42.93
2019-05-02T00:28:55.088Z,32.77
2019-05-02T00:31:24.148Z,35.20
2019-05-02T00:33:53.144Z,36.60
2019-05-02T00:36:22.128Z,37.40
2019-05-02T00:38:51.178Z,31.97
2019-05-02T00:41:20.139Z,34.30
2019-05-02T00:43:49.108Z,29.87
2019-05-02T00:46:18.053Z,31.53
2019-05-02T00:48:54.051Z,30.37
2019-05-02T00:51:26.713Z,27.97
2019-05-02T00:53:54.052Z,27.60
2019-05-02T00:56:23.107Z,21.80
2019-05-02T00:58:51.964Z,28.77
2019-05-02T01:01:31.567Z,24.87
2019-05-02T01:04:03.924Z,26.33
2019-05-02T01:06:32.825Z,23.27
2019-05-02T01:09:05.895Z,30.17
2019-05-02T01:11:33.291Z,27.20
2019-05-02T01:14:02.251Z,28.90
2019-05-02T01:16:31.243Z,24.20
2019-05-02T01:19:00.244Z,25.20
2019-05-02T01:21:29.248Z,27.20
2019-05-02T01:23:58.918Z,23.37
2019-05-02T01:26:32.273Z,23.33
2019-05-02T01:29:13.287Z,24.73
2019-05-02T01:31:58.184Z,24.20
2019-05-02T01:34:39.470Z,27.10
2019-05-02T01:37:27.488Z,29.53
2019-05-02T01:39:56.430Z,25.33
2019-05-02T01:42:25.507Z,29.90
2019-05-02T01:44:54.452Z,24.93
2019-05-02T01:47:23.493Z,31.07
2019-05-02T01:49:57.248Z,25.83
2019-05-02T01:52:23.773Z,26.23
2019-05-02T01:54:53.928Z,27.10
2019-05-02T01:57:22.824Z,25.60
2019-05-02T01:59:51.845Z,26.77
2019-05-02T02:02:20.844Z,26.00
2019-05-02T02:04:52.216Z,26.13
2019-05-02T02:07:21.233Z,26.13
2019-05-02T02:09:50.409Z,26.20
2019-05-02T02:12:19.353Z,23.97
2019-05-02T02:14:53.643Z,25.33
2019-05-02T02:17:19.073Z,24.77
2019-05-02T02:19:52.713Z,20.57
2019-05-02T02:22:33.862Z,19.07
2019-05-02T02:25:19.964Z,21.73
2019-05-02T02:27:48.823Z,20.47
2019-05-02T02:30:24.281Z,21.00
2019-05-02T02:32:52.225Z,21.50
2019-05-02T02:35:21.103Z,19.13
2019-05-02T02:37:55.740Z,20.83
2019-05-02T02:40:32.904Z,19.73
2019-05-02T02:42:55.587Z,19.03
2019-05-02T02:45:30.233Z,23.10
2019-05-02T02:48:00.194Z,22.57
2019-05-02T02:50:29.889Z,26.13
2019-05-02T02:52:58.789Z,21.53
2019-05-02T02:55:27.834Z,20.73
2019-05-02T02:57:58.649Z,19.40
2019-05-02T03:00:27.536Z,17.93
2019-05-02T03:02:56.504Z,16.97
2019-05-02T03:05:27.668Z,17.63
2019-05-02T03:07:59.503Z,19.20
2019-05-02T03:10:26.808Z,17.90
2019-05-02T03:13:21.549Z,19.57
2019-05-02T03:15:49.641Z,16.13
2019-05-02T03:18:18.688Z,17.03
2019-05-02T03:20:47.644Z,22.70
2019-05-02T03:23:22.096Z,17.57
2019-05-02T03:25:50.780Z,17.00
2019-05-02T03:28:20.334Z,17.67
2019-05-02T03:30:48.610Z,20.50
2019-05-02T03:33:17.566Z,18.17
2019-05-02T03:35:48.928Z,20.00
2019-05-02T03:38:18.184Z,21.17
2019-05-02T03:40:47.189Z,20.90
2019-05-02T03:43:19.254Z,23.07
2019-05-02T03:45:47.138Z,22.03
2019-05-02T03:48:18.078Z,22.57
2019-05-02T03:50:46.874Z,21.60
2019-05-02T03:53:17.717Z,23.30
2019-05-02T03:55:46.505Z,24.37
2019-05-02T03:58:16.969Z,21.83
2019-05-02T04:00:46.385Z,24.57
2019-05-02T04:03:15.447Z,25.20
2019-05-02T04:05:44.309Z,26.13
2019-05-02T04:08:20.852Z,22.83
2019-05-02T04:11:03.557Z,25.43
2019-05-02T04:13:36.280Z,22.10
2019-05-02T04:16:14.651Z,27.17
2019-05-02T04:18:33.773Z,24.47
2019-05-02T04:21:03.234Z,21.77
2019-05-02T04:23:32.336Z,26.07
2019-05-02T04:26:06.819Z,23.90
2019-05-02T04:28:35.148Z,28.50
2019-05-02T04:31:04.669Z,23.77
2019-05-02T04:33:34.596Z,25.80
2019-05-02T04:36:13.995Z,26.27
2019-05-02T04:38:46.533Z,24.63
2019-05-02T04:41:09.133Z,27.03
2019-05-02T04:43:40.534Z,25.87
2019-05-02T04:46:09.314Z,25.80
2019-05-02T04:48:44.368Z,28.10
2019-05-02T04:51:14.204Z,28.90
2019-05-02T04:53:44.344Z,24.50
2019-05-02T04:56:10.712Z,23.93
2019-05-02T04:58:40.789Z,29.93
2019-05-02T05:01:10.271Z,26.93
2019-05-02T05:03:39.453Z,28.97
2019-05-02T05:06:12.310Z,29.87
2019-05-02T05:08:42.184Z,26.60
2019-05-02T05:14:43.485Z,31.63
2019-05-02T05:17:34.884Z,30.87
2019-05-02T05:20:28.077Z,27.43
2019-05-02T05:22:58.136Z,30.50
2019-05-02T05:25:33.193Z,30.27
2019-05-02T05:28:05.911Z,29.50
2019-05-02T05:30:36.981Z,28.50
2019-05-02T05:33:03.324Z,30.97
2019-05-02T05:35:32.167Z,29.60
2019-05-02T05:38:01.248Z,27.57
2019-05-02T05:40:32.104Z,33.23
2019-05-02T05:43:02.682Z,34.73
2019-05-02T05:45:31.373Z,30.13
2019-05-02T05:48:01.119Z,32.57
2019-05-02T05:50:32.223Z,30.53
2019-05-02T05:53:00.820Z,33.77
2019-05-02T05:55:31.578Z,40.33
2019-05-02T05:58:11.857Z,35.87
2019-05-02T06:00:31.255Z,33.33
2019-05-02T06:03:09.945Z,35.43
2019-05-02T06:05:33.338Z,38.73
2019-05-02T06:08:01.708Z,38.17
2019-05-02T06:10:30.808Z,35.70
2019-05-02T06:13:05.204Z,41.50
2019-05-02T06:15:33.856Z,38.83
2019-05-02T06:18:07.589Z,36.93
2019-05-02T06:20:43.476Z,38.90
2019-05-02T06:23:12.388Z,39.57
2019-05-02T06:25:43.017Z,40.37
2019-05-02T06:28:11.909Z,43.77
2019-05-02T06:30:40.886Z,41.97
2019-05-02T06:33:10.920Z,40.70
2019-05-02T06:35:39.950Z,45.57
2019-05-02T06:38:08.984Z,43.43
2019-05-02T06:40:39.360Z,44.33
2019-05-02T06:43:09.674Z,47.00
2019-05-02T06:45:39.715Z,44.60
2019-05-02T06:48:16.811Z,45.33
2019-05-02T06:50:43.252Z,45.70
2019-05-02T06:53:17.526Z,61.33
2019-05-02T06:55:50.447Z,45.10
2019-05-02T06:58:19.656Z,43.57
2019-05-02T07:01:40.803Z,46.80
2019-05-02T07:04:33.272Z,45.30
2019-05-02T07:07:25.220Z,43.50
2019-05-02T07:10:13.433Z,39.30
2019-05-02T07:12:46.140Z,37.07
2019-05-02T07:15:44.761Z,37.10
2019-05-02T07:18:49.449Z,37.90
2019-05-02T07:21:41.908Z,40.30
2019-05-02T07:24:11.020Z,39.07
2019-05-02T07:26:46.163Z,38.10
2019-05-02T07:29:21.813Z,37.27
2019-05-02T07:31:53.626Z,37.80
2019-05-02T07:34:23.801Z,37.83
2019-05-02T07:36:55.198Z,34.27
2019-05-02T07:39:30.991Z,32.43
2019-05-02T07:42:00.620Z,35.53
2019-05-02T07:44:35.119Z,35.50
2019-05-02T07:47:06.888Z,35.93
2019-05-02T07:49:43.928Z,36.10
2019-05-02T07:52:56.341Z,39.63
2019-05-02T07:55:30.529Z,34.03
2019-05-02T07:58:07.013Z,34.07
2019-05-02T08:00:53.741Z,35.30
2019-05-02T08:03:29.399Z,31.30
2019-05-02T08:06:00.036Z,31.03
2019-05-02T08:08:32.691Z,32.13
2019-05-02T08:11:03.185Z,29.73
2019-05-02T08:13:34.555Z,30.57
2019-05-02T08:16:17.005Z,29.73
2019-05-02T08:18:46.158Z,28.80
2019-05-02T08:21:14.984Z,29.77
2019-05-02T08:23:43.785Z,28.73
2019-05-02T08:26:16.321Z,28.27
2019-05-02T08:28:55.645Z,27.60
2019-05-02T08:31:24.987Z,28.10
2019-05-02T08:33:54.007Z,26.63
2019-05-02T08:36:28.753Z,26.87
2019-05-02T08:38:57.952Z,24.47
2019-05-02T08:41:28.100Z,27.43
2019-05-02T08:44:00.066Z,26.67
2019-05-02T08:46:28.960Z,27.20
2019-05-02T08:48:57.910Z,27.53
2019-05-02T08:51:27.986Z,24.93
2019-05-02T08:53:58.685Z,26.07
2019-05-02T08:56:28.996Z,24.97
2019-05-02T08:58:57.779Z,23.77
2019-05-02T09:01:34.884Z,27.03
2019-05-02T09:03:57.232Z,22.83
2019-05-02T09:06:26.132Z,26.23
2019-05-02T09:08:55.041Z,22.43
2019-05-02T09:11:25.244Z,25.90
2019-05-02T09:13:54.341Z,25.13
2019-05-02T09:16:28.630Z,23.63
2019-05-02T09:18:56.719Z,23.43
2019-05-02T09:21:31.542Z,25.83
2019-05-02T09:24:02.352Z,24.47
2019-05-02T09:26:36.168Z,22.63
2019-05-02T09:29:05.251Z,25.70
2019-05-02T09:31:32.144Z,25.23
2019-05-02T09:34:04.884Z,22.77
2019-05-02T09:36:34.114Z,20.90
2019-05-02T09:39:04.324Z,21.90
2019-05-02T09:41:36.269Z,23.77
2019-05-02T09:44:04.113Z,21.27
2019-05-02T09:46:38.472Z,21.57
2019-05-02T09:49:11.991Z,19.83
2019-05-02T09:51:38.077Z,22.10
2019-05-02T09:54:06.899Z,22.57
2019-05-02T09:56:35.672Z,20.47
2019-05-02T09:59:23.324Z,18.70
2019-05-02T10:01:36.953Z,18.77
2019-05-02T10:04:06.085Z,22.67
2019-05-02T10:06:36.328Z,22.00
2019-05-02T10:09:06.377Z,21.63
2019-05-02T10:11:35.287Z,23.20
2019-05-02T10:14:04.499Z,21.13
2019-05-02T10:16:33.768Z,18.73
2019-05-02T10:19:09.511Z,20.93
2019-05-02T10:21:36.447Z,21.47
2019-05-02T10:24:07.937Z,20.90
2019-05-02T10:26:37.043Z,20.67
2019-05-02T10:29:06.054Z,23.60
2019-05-02T10:31:37.568Z,17.53
2019-05-02T10:34:16.313Z,18.90
2019-05-02T10:36:45.194Z,18.57
2019-05-02T10:39:15.698Z,19.63
2019-05-02T10:41:44.322Z,19.70
2019-05-02T10:44:13.167Z,19.07
2019-05-02T10:46:52.880Z,18.80
2019-05-02T10:49:37.527Z,20.33
2019-05-02T10:52:07.130Z,16.20
2019-05-02T10:54:38.163Z,18.43
2019-05-02T10:57:07.228Z,16.50
2019-05-02T10:59:38.559Z,17.67
2019-05-02T11:02:26.533Z,18.57
2019-05-02T11:05:02.574Z,17.13
2019-05-02T11:07:32.631Z,16.50
2019-05-02T11:10:03.247Z,17.60
2019-05-02T11:12:52.638Z,17.57
2019-05-02T11:15:41.833Z,16.20
2019-05-02T11:18:12.702Z,15.17
2019-05-02T11:20:42.200Z,11.57
2019-05-02T11:23:12.724Z,13.93
2019-05-02T11:25:42.193Z,10.97
2019-05-02T11:28:32.394Z,14.63
2019-05-02T11:31:06.829Z,11.23
2019-05-02T11:33:35.133Z,10.60
2019-05-02T11:36:13.650Z,9.17
2019-05-02T11:38:48.185Z,8.00
2019-05-02T11:41:16.558Z,8.83
2019-05-02T11:43:45.668Z,7.90
2019-05-02T11:46:15.907Z,9.87
2019-05-02T11:48:55.493Z,9.93
2019-05-02T11:51:47.040Z,6.93
2019-05-02T11:54:14.858Z,11.63
2019-05-02T11:56:49.142Z,10.77
2019-05-02T11:59:20.802Z,9.17
2019-05-02T12:02:00.035Z,11.17
2019-05-02T12:04:28.097Z,9.63
2019-05-02T12:07:04.797Z,10.90
2019-05-02T12:09:37.804Z,12.67
2019-05-02T12:12:06.754Z,10.17
2019-05-02T12:14:36.514Z,14.20
2019-05-02T12:17:06.279Z,12.63
2019-05-02T12:19:35.208Z,12.20
2019-05-02T12:22:07.162Z,10.43
2019-05-02T12:24:40.797Z,10.80
2019-05-02T12:27:11.749Z,14.60
2019-05-02T12:29:42.421Z,10.20
2019-05-02T12:32:12.070Z,12.37
2019-05-02T12:34:42.029Z,10.37
2019-05-02T12:37:15.228Z,9.30
2019-05-02T12:39:55.928Z,10.20
2019-05-02T12:42:28.245Z,8.57
2019-05-02T12:44:57.478Z,10.57
2019-05-02T12:47:29.352Z,8.67
2019-05-02T12:49:58.318Z,11.93
2019-05-02T12:52:29.313Z,8.50
2019-05-02T12:54:58.255Z,9.63
2019-05-02T12:57:32.109Z,9.40
2019-05-02T13:00:02.144Z,7.10
2019-05-02T13:02:37.868Z,16.30
2019-05-02T13:05:07.106Z,11.07
2019-05-02T13:07:36.353Z,10.77
2019-05-02T13:10:09.519Z,11.03
2019-05-02T13:12:39.171Z,8.93
2019-05-02T13:15:08.123Z,10.57
2019-05-02T13:17:43.966Z,8.50
2019-05-02T13:20:12.291Z,8.37
2019-05-02T13:23:05.496Z,12.97
2019-05-02T13:25:37.038Z,11.07
2019-05-02T13:28:06.158Z,9.33
2019-05-02T13:30:46.616Z,9.50
2019-05-02T13:33:22.749Z,11.03
2019-05-02T13:35:55.223Z,12.43
2019-05-02T13:38:24.127Z,16.40
2019-05-02T13:40:53.041Z,9.90
2019-05-02T13:43:24.635Z,9.57
2019-05-02T13:46:03.627Z,9.77
2019-05-02T13:48:35.671Z,10.40
2019-05-02T13:51:04.864Z,9.93
2019-05-02T13:53:35.498Z,9.73
2019-05-02T13:56:23.495Z,9.70
2019-05-02T13:58:52.398Z,10.17
2019-05-02T14:01:22.370Z,9.87
2019-05-02T14:03:56.689Z,8.70
2019-05-02T14:06:37.702Z,7.97
2019-05-02T14:09:19.975Z,11.83
2019-05-02T14:12:01.825Z,8.47
2019-05-02T14:14:30.104Z,10.23
2019-05-02T14:16:59.083Z,9.03
2019-05-02T14:19:27.910Z,10.20
2019-05-02T14:21:56.718Z,8.30
2019-05-02T14:24:26.659Z,10.70
2019-05-02T14:26:55.823Z,9.27
2019-05-02T14:29:25.923Z,11.83
2019-05-02T14:31:54.793Z,10.40
2019-05-02T14:34:42.767Z,8.87
2019-05-02T14:37:11.944Z,7.93
2019-05-02T14:39:41.624Z,9.20
2019-05-02T14:42:15.311Z,10.50
2019-05-02T14:45:04.188Z,10.83
2019-05-02T14:47:17.757Z,8.97
2019-05-02T14:49:42.973Z,10.10
2019-05-02T14:52:12.634Z,8.53
2019-05-02T14:54:44.007Z,8.63
2019-05-02T14:57:17.297Z,10.67
2019-05-02T14:59:50.368Z,9.57
2019-05-02T15:02:39.218Z,9.90
2019-05-02T15:05:08.728Z,11.83
2019-05-02T15:07:38.559Z,11.47
2019-05-02T15:10:07.609Z,9.33
2019-05-02T15:12:36.540Z,8.90
2019-05-02T15:15:06.295Z,9.60
2019-05-02T15:17:37.817Z,10.97
2019-05-02T15:20:06.158Z,9.50
2019-05-02T15:22:37.509Z,9.47
2019-05-02T15:25:07.923Z,9.30
2019-05-02T15:27:41.907Z,8.43
2019-05-02T15:30:08.035Z,11.17
2019-05-02T15:32:51.963Z,10.50
2019-05-02T15:35:43.177Z,10.93
2019-05-02T15:38:20.872Z,10.77
2019-05-02T15:40:49.807Z,11.03
2019-05-02T15:43:13.516Z,10.83
2019-05-02T15:45:44.174Z,8.57
2019-05-02T15:48:21.181Z,14.50
2019-05-02T15:50:50.178Z,8.50
2019-05-02T15:53:33.870Z,8.70
2019-05-02T15:56:02.843Z,10.20
2019-05-02T15:58:32.511Z,9.63
2019-05-02T16:01:36.775Z,8.87
2019-05-02T16:04:03.519Z,8.50
2019-05-02T16:06:33.927Z,11.50
2019-05-02T16:09:02.954Z,8.13
2019-05-02T16:11:32.217Z,11.53
2019-05-02T16:14:02.228Z,11.10
2019-05-02T16:16:32.040Z,11.37
2019-05-02T16:19:02.220Z,10.17
2019-05-02T16:21:51.912Z,11.00
2019-05-02T16:24:23.226Z,8.90
2019-05-02T16:26:53.217Z,11.83
2019-05-02T16:29:26.772Z,9.70
2019-05-02T16:32:03.180Z,8.77
2019-05-02T16:34:34.454Z,9.10
2019-05-02T16:37:22.537Z,7.97
2019-05-02T16:39:52.701Z,8.47
2019-05-02T16:42:22.772Z,9.10
2019-05-02T16:44:54.588Z,8.90
2019-05-02T16:47:22.463Z,14.30
2019-05-02T16:49:53.135Z,8.23
2019-05-02T16:52:22.266Z,12.67
2019-05-02T16:54:52.641Z,7.90
2019-05-02T16:57:22.511Z,7.30
2019-05-02T16:59:55.870Z,9.97
2019-05-02T17:02:22.919Z,8.00
2019-05-02T17:04:54.507Z,9.43
2019-05-02T17:07:34.861Z,9.83
2019-05-02T17:10:24.045Z,10.03
2019-05-02T17:12:57.040Z,7.67
2019-05-02T17:15:31.448Z,8.03
2019-05-02T17:17:58.327Z,7.23
2019-05-02T17:20:27.283Z,6.57
2019-05-02T17:23:01.746Z,9.20
2019-05-02T17:25:26.764Z,8.97
2019-05-02T17:28:03.913Z,7.57
2019-05-02T17:30:26.188Z,7.60
2019-05-02T17:32:56.048Z,7.53
2019-05-02T17:35:25.102Z,13.10
2019-05-02T17:37:54.159Z,6.63
2019-05-02T17:40:26.190Z,7.40
2019-05-02T17:42:57.043Z,8.00
2019-05-02T17:45:26.923Z,8.57
2019-05-02T17:47:59.353Z,9.27
2019-05-02T17:50:49.304Z,10.93
2019-05-02T17:53:17.724Z,9.70
2019-05-02T17:55:52.562Z,12.50
2019-05-02T17:58:21.504Z,9.93
2019-05-02T18:00:54.948Z,10.73
2019-05-02T18:03:24.056Z,12.30
2019-05-02T18:05:52.882Z,10.77
2019-05-02T18:08:21.999Z,13.33
2019-05-02T18:10:58.528Z,12.47
2019-05-02T18:13:22.795Z,13.87
2019-05-02T18:15:53.435Z,14.43
2019-05-02T18:18:22.584Z,15.33
2019-05-02T18:20:52.954Z,13.35
2019-05-02T18:23:25.887Z,14.93
2019-05-02T18:25:52.684Z,15.30
2019-05-02T18:28:26.130Z,17.73
2019-05-02T18:30:52.537Z,13.57
2019-05-02T18:33:22.663Z,15.10
2019-05-02T18:35:52.637Z,13.97
2019-05-02T18:38:22.412Z,13.17
2019-05-02T18:40:52.123Z,14.57
2019-05-02T18:43:22.338Z,12.43
2019-05-02T18:45:51.670Z,13.63
2019-05-02T18:48:21.913Z,14.80
2019-05-02T18:50:52.626Z,14.63
2019-05-02T18:53:24.257Z,15.33
2019-05-02T18:55:52.182Z,13.73
2019-05-02T18:58:22.536Z,15.25
2019-05-02T19:00:52.070Z,13.10
2019-05-02T19:03:22.982Z,13.57
2019-05-02T19:05:57.186Z,18.57
2019-05-02T19:08:29.067Z,15.47
2019-05-02T19:11:05.388Z,14.53
2019-05-02T19:13:23.593Z,14.33
2019-05-02T19:15:53.563Z,20.90
2019-05-02T19:18:22.259Z,23.43
2019-05-02T19:20:59.083Z,29.47
2019-05-02T19:23:28.748Z,28.13
2019-05-02T19:26:02.271Z,35.23
2019-05-02T19:28:38.467Z,24.87
2019-05-02T19:31:07.436Z,35.90
2019-05-02T19:33:37.290Z,33.97
2019-05-02T19:36:06.774Z,37.20
2019-05-02T19:38:35.580Z,38.10
2019-05-02T19:41:08.864Z,36.00
2019-05-02T19:43:40.360Z,26.53
2019-05-02T19:46:05.847Z,17.67
2019-05-02T19:48:36.843Z,18.30
2019-05-02T19:51:09.793Z,14.87
2019-05-02T19:53:36.107Z,15.47
2019-05-02T19:56:06.706Z,14.50
2019-05-02T19:58:36.653Z,13.73
2019-05-02T20:01:06.409Z,14.27
2019-05-02T20:03:35.449Z,13.10
2019-05-02T20:06:06.182Z,14.97
2019-05-02T20:08:35.221Z,15.27
2019-05-02T20:11:04.181Z,17.10
2019-05-02T20:13:33.068Z,17.63
2019-05-02T20:16:22.466Z,15.57
2019-05-02T20:18:52.504Z,14.30
2019-05-02T20:21:29.681Z,17.00
2019-05-02T20:24:09.099Z,18.30
2019-05-02T20:26:41.661Z,19.77
2019-05-02T20:29:10.409Z,20.23
2019-05-02T20:31:39.201Z,19.10
2019-05-02T20:34:08.142Z,20.13
2019-05-02T20:36:37.109Z,18.67
2019-05-02T20:39:07.987Z,15.83
2019-05-02T20:41:37.191Z,16.27
2019-05-02T20:44:06.164Z,17.60
2019-05-02T20:46:35.471Z,16.43
2019-05-02T20:49:04.502Z,15.10
2019-05-02T20:51:36.773Z,16.00
2019-05-02T20:54:09.358Z,18.20
2019-05-02T20:56:38.363Z,13.70
2019-05-02T20:59:07.282Z,16.47
2019-05-02T21:01:36.226Z,18.70
2019-05-02T21:04:06.435Z,18.20
2019-05-02T21:06:52.749Z,14.83
2019-05-02T21:09:41.863Z,13.47
2019-05-02T21:12:12.602Z,15.97
2019-05-02T21:14:41.686Z,14.93
2019-05-02T21:17:12.704Z,17.60
2019-05-02T21:19:41.812Z,16.70
2019-05-02T21:22:15.870Z,15.23
2019-05-02T21:24:44.844Z,17.67
2019-05-02T21:27:13.837Z,19.23
2019-05-02T21:29:42.682Z,16.10
2019-05-02T21:32:12.815Z,15.07
2019-05-02T21:34:42.498Z,15.57
2019-05-02T21:37:11.788Z,15.07
2019-05-02T21:39:42.489Z,14.30
2019-05-02T21:42:11.420Z,15.97
2019-05-02T21:44:42.112Z,16.97
2019-05-02T21:47:10.932Z,18.27
2019-05-02T21:49:49.259Z,17.83
2019-05-02T21:52:23.741Z,19.17
2019-05-02T21:55:12.368Z,18.43
2019-05-02T21:57:41.187Z,18.60
2019-05-02T22:00:11.743Z,23.03
2019-05-02T22:02:40.624Z,21.20
2019-05-02T22:05:09.589Z,22.23
2019-05-02T22:07:38.544Z,27.63
2019-05-02T22:10:14.515Z,25.67
2019-05-02T22:12:43.486Z,28.20
2019-05-02T22:15:12.861Z,29.53
2019-05-02T22:17:41.840Z,26.37
2019-05-02T22:20:12.255Z,26.57
2019-05-02T22:22:42.572Z,27.60
2019-05-02T22:25:11.659Z,25.87
2019-05-02T22:27:40.543Z,25.20
2019-05-02T22:30:09.356Z,23.23
2019-05-02T22:32:38.186Z,24.90
2019-05-02T22:35:07.116Z,25.60
2019-05-02T22:37:36.455Z,26.00
2019-05-02T22:40:07.747Z,28.50
2019-05-02T22:42:36.780Z,23.87
2019-05-02T22:45:05.800Z,25.60
2019-05-02T22:47:34.548Z,28.47
2019-05-02T22:50:03.619Z,28.97
2019-05-02T22:52:33.011Z,30.03
2019-05-02T22:55:02.984Z,27.10
2019-05-02T22:57:31.921Z,23.37
2019-05-02T23:00:01.939Z,23.97
2019-05-02T23:02:32.454Z,22.70
2019-05-02T23:05:01.979Z,25.87
2019-05-02T23:07:30.979Z,29.00
2019-05-02T23:09:59.747Z,23.67
2019-05-02T23:12:28.685Z,24.80
2019-05-02T23:14:57.591Z,24.97
2019-05-02T23:17:26.327Z,25.10
2019-05-02T23:19:57.229Z,25.40
2019-05-02T23:22:26.184Z,21.63
2019-05-02T23:25:14.291Z,21.33
2019-05-02T23:27:52.244Z,21.47
2019-05-02T23:30:23.153Z,24.77
2019-05-02T23:32:52.229Z,22.77
2019-05-02T23:35:21.006Z,24.70
2019-05-02T23:37:49.961Z,23.03
2019-05-02T23:40:19.968Z,22.67
2019-05-02T23:42:48.757Z,18.97
2019-05-02T23:45:17.548Z,23.63
2019-05-02T23:47:49.859Z,21.73
2019-05-02T23:50:18.759Z,22.30
2019-05-02T23:52:47.524Z,23.63
2019-05-02T23:55:19.849Z,20.90
2019-05-02T23:57:48.797Z,22.93
